Home > Products > Valid Products > MTR

000
SAUS44 KLIX 050152
MTRBVE
METAR KBVE 050151Z AUTO 00000KT 10SM CLR 28/24 A3005 RMK AO2 SLP175
T02780239





000
SAUS44 KLIX 050055 COR
MTRBVE
METAR KBVE 050051Z AUTO 00000KT 10SM CLR 29/25 A3007 RMK AO2 SLP182
T02940250





000
SAUS44 KLIX 050053 COR
MTRBVE
METAR KBVE 050051Z AUTO 00000KT 10SM CLR 29/25 A3007 RMK AO2 SLP182
T02940250





000
SAUS44 KLIX 050053 COR
MTRBVE
METAR KBVE 050051Z AUTO 00000KT 10SM CLR 29/25 A3007 RMK AO2 SLP182
T02940250





000
SAUS44 KLIX 042352
MTRBVE
METAR KBVE 042351Z AUTO 25006KT 10SM CLR 30/24 A3006 RMK AO2 SLP178
T03000244 10317 20300 51007





000
SAUS44 KLIX 042352
MTRBVE
METAR KBVE 042351Z AUTO 25006KT 10SM CLR 30/24 A3006 RMK AO2 SLP178
T03000244 10317 20300 51007





000
SAUS44 KLIX 042252
MTRBVE
METAR KBVE 042251Z AUTO 23008KT 10SM CLR 31/24 A3005 RMK AO2 SLP176
T03060244





000
SAUS44 KLIX 042152
MTRBVE
METAR KBVE 042151Z AUTO 23010KT 10SM CLR 31/24 A3005 RMK AO2 SLP176
T03110244





000
SAUS44 KLIX 042052
MTRBVE
METAR KBVE 042051Z AUTO 23011KT 10SM FEW026 SCT036 32/25 A3004 RMK
AO2 SLP171 T03170250 58011





000
SAUS44 KLIX 041952
MTRBVE
METAR KBVE 041951Z AUTO 21011KT 10SM CLR 32/25 A3005 RMK AO2 SLP175
T03170250





000
SAUS44 KLIX 041855 COR
MTRBVE
METAR KBVE 041851Z AUTO 22011KT 10SM CLR 32/24 A3006 RMK AO2 SLP180
T03170244





000
SAUS44 KLIX 041853 COR
MTRBVE
METAR KBVE 041851Z AUTO 22011KT 10SM CLR 32/24 A3006 RMK AO2 SLP180
T03170244





000
SAUS44 KLIX 041853 COR
MTRBVE
METAR KBVE 041851Z AUTO 22011KT 10SM CLR 32/24 A3006 RMK AO2 SLP180
T03170244





000
SAUS44 KLIX 041852
MTRBVE
METAR KBVE 041851Z AUTO 22011KT 10SM CLR 32/24 A3006 RMK AO2 SLP180
T03170244





000
SAUS44 KLIX 041753
MTRBVE
METAR KBVE 041751Z AUTO 21010KT 10SM CLR 31/24 A3007 RMK AO2 SLP182
60000 T03110244 10311 20283 58009





000
SAUS44 KLIX 041652
MTRBVE
METAR KBVE 041651Z AUTO 21009KT 10SM CLR 31/25 A3009 RMK AO2 SLP190
T03060250





000
SAUS44 KLIX 041552
MTRBVE
METAR KBVE 041551Z AUTO 23009KT 10SM FEW023 FEW034 30/24 A3009 RMK
AO2 SLP190 T03000244





000
SAUS44 KLIX 041552
MTRBVE
METAR KBVE 041551Z AUTO 23009KT 10SM FEW023 FEW034 30/24 A3009 RMK
AO2 SLP190 T03000244





000
SAUS44 KLIX 041452
MTRBVE
METAR KBVE 041451Z AUTO 20005KT 10SM CLR 29/24 A3010 RMK AO2
RAB1352E02 SLP191 P0000 60000 T02890244 51011





000
SAUS44 KLIX 041406
MTRBVE
SPECI KBVE 041404Z AUTO 17010KT 10SM SCT023 BKN080 BKN090 28/23
A3010 RMK AO2 RAB1352E02 P0000 T02830228





000
SAUS44 KLIX 041406
MTRBVE
SPECI KBVE 041404Z AUTO 17010KT 10SM SCT023 BKN080 BKN090 28/23
A3010 RMK AO2 RAB1352E02 P0000 T02830228





000
SAUS44 KLIX 041356 COR
MTRBVE
METAR KBVE 041351Z AUTO 20008KT 10SM BKN023 29/25 A3009 RMK AO2
RAB03E14 SLP190 P0000 T02940250





000
SAUS44 KLIX 041353 COR
MTRBVE
METAR KBVE 041351Z AUTO 20008KT 10SM BKN023 29/25 A3009 RMK AO2
RAB03E14 SLP190 P0000 T02940250





000
SAUS44 KLIX 041338
MTRBVE
SPECI KBVE 041337Z AUTO 23007KT 10SM SCT020 SCT033 29/25 A3009 RMK
AO2 RAB03E14 P0000 T02940250





000
SAUS44 KLIX 041338
MTRBVE
SPECI KBVE 041337Z AUTO 23007KT 10SM SCT020 SCT033 29/25 A3009 RMK
AO2 RAB03E14 P0000 T02940250





000
SAUS44 KLIX 041252
MTRBVE
METAR KBVE 041251Z AUTO 24005KT 10SM BKN020 BKN090 29/25 A3008 RMK
AO2 SLP185 T02940250





000
SAUS44 KLIX 041252
MTRBVE
METAR KBVE 041251Z AUTO 24005KT 10SM BKN020 BKN090 29/25 A3008 RMK
AO2 SLP185 T02940250





000
SAUS44 KLIX 041152
MTRBVE
METAR KBVE 041151Z AUTO 20005KT 10SM CLR 29/25 A3006 RMK AO2 SLP180
T02890250 10289 20283 53011





000
SAUS44 KLIX 041052
MTRBVE
METAR KBVE 041051Z AUTO 21009KT 10SM CLR 28/24 A3005 RMK AO2 SLP174
T02830244





000
SAUS44 KLIX 040952
MTRBVE
METAR KBVE 040951Z AUTO 22009KT 10SM CLR 28/24 A3004 RMK AO2 SLP170
T02830244





000
SAUS44 KLIX 040952
MTRBVE
METAR KBVE 040951Z AUTO 22009KT 10SM CLR 28/24 A3004 RMK AO2 SLP170
T02830244





000
SAUS44 KLIX 040852
MTRBVE
METAR KBVE 040851Z AUTO 21008KT 10SM CLR 28/25 A3003 RMK AO2 SLP169
T02830250 58006





000
SAUS44 KLIX 040852
MTRBVE
METAR KBVE 040851Z AUTO 21008KT 10SM CLR 28/25 A3003 RMK AO2 SLP169
T02830250 58006





000
SAUS44 KLIX 040752
MTRBVE
METAR KBVE 040751Z AUTO 20008KT 10SM FEW026 29/24 A3004 RMK AO2
SLP170 T02890244





000
SAUS44 KLIX 040752
MTRBVE
METAR KBVE 040751Z AUTO 20008KT 10SM FEW026 29/24 A3004 RMK AO2
SLP170 T02890244





000
SAUS44 KLIX 040654 COR
MTRBVE
METAR KBVE 040651Z AUTO 20006KT 10SM CLR 28/24 A3005 RMK AO2 SLP175
T02830244





000
SAUS44 KLIX 040653 COR
MTRBVE
METAR KBVE 040651Z AUTO 20006KT 10SM CLR 28/24 A3005 RMK AO2 SLP175
T02830244





000
SAUS44 KLIX 040552
MTRBVE
METAR KBVE 040551Z AUTO 19007KT 10SM CLR 28/25 A3005 RMK AO2 SLP175
T02830250 10300 20283 403170278 50005





000
SAUS44 KLIX 040452
MTRBVE
METAR KBVE 040451Z AUTO 18007KT 10SM FEW023 FEW031 29/25 A3006 RMK
AO2 SLP179 T02890250





000
SAUS44 KLIX 040352
MTRBVE
METAR KBVE 040351Z AUTO 20007KT 10SM CLR 29/24 A3004 RMK AO2 SLP173
T02890244





000
SAUS44 KLIX 040252
MTRBVE
METAR KBVE 040251Z AUTO 20008KT 10SM CLR 29/24 A3004 RMK AO2 SLP170
T02890244 53004





000
SAUS44 KLIX 040252
MTRBVE
METAR KBVE 040251Z AUTO 20008KT 10SM CLR 29/24 A3004 RMK AO2 SLP170
T02890244 53004





000
SAUS44 KLIX 040153
MTRBVE
METAR KBVE 040151Z AUTO 20007KT 10SM CLR 29/24 A3002 RMK AO2 SLP166
T02940244





000
SAUS44 KLIX 040052
MTRBVE
METAR KBVE 040051Z AUTO 21007KT 10SM FEW026 29/24 A3002 RMK AO2
SLP165 T02940244





000
SAUS44 KLIX 032352
MTRBVE
METAR KBVE 032351Z AUTO 20007KT 10SM CLR 30/24 A3002 RMK AO2 SLP167
T03000244 10317 20300 56006





000
SAUS44 KLIX 032252
MTRBVE
METAR KBVE 032251Z AUTO 20008KT 10SM CLR 31/24 A3003 RMK AO2 SLP168
T03060244





000
SAUS44 KLIX 032152
MTRBVE
METAR KBVE 032151Z AUTO 20008KT 10SM CLR 31/24 A3003 RMK AO2 SLP169
T03110239





000
SAUS44 KLIX 032152
MTRBVE
METAR KBVE 032151Z AUTO 20008KT 10SM CLR 31/24 A3003 RMK AO2 SLP169
T03110239





000
SAUS44 KLIX 032052
MTRBVE
METAR KBVE 032051Z AUTO 22007KT 10SM CLR 31/24 A3004 RMK AO2 SLP173
T03110239 58012





000
SAUS44 KLIX 031952
MTRBVE
METAR KBVE 031951Z AUTO 21008KT 10SM CLR 31/24 A3005 RMK AO2 SLP177
T03110239





000
SAUS44 KLIX 031852
MTRBVE
METAR KBVE 031851Z AUTO 22008KT 10SM CLR 32/24 A3007 RMK AO2 SLP181
T03170244





000
SAUS44 KLIX 031756 COR
MTRBVE
METAR KBVE 031751Z AUTO 22010KT 10SM CLR 31/24 A3008 RMK AO2 SLP184
T03110239 10317 20283 50005





000
SAUS44 KLIX 031756 COR
MTRBVE
METAR KBVE 031751Z AUTO 22010KT 10SM CLR 31/24 A3008 RMK AO2 SLP184
T03110239 10317 20283 50005





000
SAUS44 KLIX 031753 COR
MTRBVE
METAR KBVE 031751Z AUTO 22010KT 10SM CLR 31/24 A3008 RMK AO2 SLP184
T03110239 10317 20283 50005





000
SAUS44 KLIX 031652
MTRBVE
METAR KBVE 031651Z AUTO 24009KT 10SM SCT023 SCT055 31/24 A3008 RMK
AO2 SLP186 T03060244





000
SAUS44 KLIX 031629
MTRBVE
SPECI KBVE 031627Z AUTO 23007KT 10SM BKN022 BKN050 BKN060 31/25
A3008 RMK AO2 T03060250





000
SAUS44 KLIX 031552
MTRBVE
METAR KBVE 031551Z AUTO 21005KT 10SM FEW021 31/26 A3007 RMK AO2
SLP183 T03060256





000
SAUS44 KLIX 031552
MTRBVE
METAR KBVE 031551Z AUTO 21005KT 10SM FEW021 31/26 A3007 RMK AO2
SLP183 T03060256





000
SAUS44 KLIX 031452
MTRBVE
METAR KBVE 031451Z AUTO 23007KT 10SM FEW021 31/26 A3006 RMK AO2
SLP180 T03060256 50004





000
SAUS44 KLIX 031352
MTRBVE
METAR KBVE 031351Z AUTO 22007KT 10SM CLR 30/25 A3006 RMK AO2 SLP180
T03000250





000
SAUS44 KLIX 031252
MTRBVE
METAR KBVE 031251Z AUTO 22005KT 10SM CLR 29/25 A3007 RMK AO2 SLP182
T02940250





000
SAUS44 KLIX 031152
MTRBVE
METAR KBVE 031151Z AUTO 20004KT 10SM CLR 28/26 A3005 RMK AO2 SLP176
T02830261 10283 20278 53002





000
SAUS44 KLIX 031052
MTRBVE
METAR KBVE 031051Z AUTO 19004KT 10SM CLR 28/26 A3005 RMK AO2 SLP174
T02780256





000
SAUS44 KLIX 030952
MTRBVE
METAR KBVE 030951Z AUTO 20007KT 10SM CLR 28/25 A3004 RMK AO2 SLP172
T02830250





000
SAUS44 KLIX 030852
MTRBVE
METAR KBVE 030851Z AUTO 19006KT 10SM CLR 28/26 A3004 RMK AO2 SLP173
T02830256 58005





000
SAUS44 KLIX 030852
MTRBVE
METAR KBVE 030851Z AUTO 19006KT 10SM CLR 28/26 A3004 RMK AO2 SLP173
T02830256 58005





000
SAUS44 KLIX 030752
MTRBVE
METAR KBVE 030751Z AUTO 19006KT 10SM SCT021 SCT043 28/26 A3005 RMK
AO2 SLP177 T02830256





000
SAUS44 KLIX 030752
MTRBVE
METAR KBVE 030751Z AUTO 19006KT 10SM SCT021 SCT043 28/26 A3005 RMK
AO2 SLP177 T02830256





000
SAUS44 KLIX 030652
MTRBVE
METAR KBVE 030651Z AUTO 20005KT 10SM CLR 28/25 A3006 RMK AO2 SLP179
T02830250





000
SAUS44 KLIX 030652
MTRBVE
METAR KBVE 030651Z AUTO 20005KT 10SM CLR 28/25 A3006 RMK AO2 SLP179
T02830250





000
SAUS44 KLIX 030555 COR
MTRBVE
METAR KBVE 030551Z AUTO 20006KT 10SM CLR 28/25 A3006 RMK AO2 SLP178
T02830250 10294 20278 403060239 51002





000
SAUS44 KLIX 030555 COR
MTRBVE
METAR KBVE 030551Z AUTO 20006KT 10SM CLR 28/25 A3006 RMK AO2 SLP178
T02830250 10294 20278 403060239 51002





000
SAUS44 KLIX 030553 COR
MTRBVE
METAR KBVE 030551Z AUTO 20006KT 10SM CLR 28/25 A3006 RMK AO2 SLP178
T02830250 10294 20278 403060239 51002





000
SAUS44 KLIX 030553 COR
MTRBVE
METAR KBVE 030551Z AUTO 20006KT 10SM CLR 28/25 A3006 RMK AO2 SLP178
T02830250 10294 20278 403060239 51002





000
SAUS44 KLIX 030452
MTRBVE
METAR KBVE 030451Z AUTO 19006KT 10SM CLR 28/26 A3006 RMK AO2 SLP178
T02830256





000
SAUS44 KLIX 030352
MTRBVE
METAR KBVE 030351Z AUTO 19006KT 10SM CLR 28/26 A3006 RMK AO2 SLP177
T02830256





000
SAUS44 KLIX 030330
MTRBVE
SPECI KBVE 030329Z AUTO 18006KT 10SM SCT023 28/26 A3006 RMK AO2
T02830256





000
SAUS44 KLIX 030320
MTRBVE
SPECI KBVE 030319Z AUTO 18006KT 10SM BKN023 28/26 A3006 RMK AO2
T02830256





000
SAUS44 KLIX 030252
MTRBVE
METAR KBVE 030251Z AUTO 18005KT 10SM CLR 28/25 A3005 RMK AO2 SLP176
T02830250 53003





000
SAUS44 KLIX 030152
MTRBVE
METAR KBVE 030151Z AUTO 19006KT 10SM FEW023 28/25 A3004 RMK AO2
SLP174 T02830250





000
SAUS44 KLIX 030052
MTRBVE
METAR KBVE 030051Z AUTO 20007KT 10SM CLR 29/24 A3004 RMK AO2 SLP171
T02890239





000
SAUS44 KLIX 030052
MTRBVE
METAR KBVE 030051Z AUTO 20007KT 10SM CLR 29/24 A3004 RMK AO2 SLP171
T02890239





000
SAUS44 KLIX 022352
MTRBVE
METAR KBVE 022351Z AUTO 20009KT 10SM FEW022 29/25 A3004 RMK AO2
SLP173 T02940250 10306 20294 58009





000
SAUS44 KLIX 022352
MTRBVE
METAR KBVE 022351Z AUTO 20009KT 10SM FEW022 29/25 A3004 RMK AO2
SLP173 T02940250 10306 20294 58009





000
SAUS44 KLIX 022252
MTRBVE
METAR KBVE 022251Z AUTO 20008KT 10SM CLR 30/24 A3005 RMK AO2 SLP176
T03000244





000
SAUS44 KLIX 022152
MTRBVE
METAR KBVE 022151Z AUTO 20008KT 10SM SCT024 SCT032 30/26 A3007 RMK
AO2 SLP181 T03000256





000
SAUS44 KLIX 022052
MTRBVE
METAR KBVE 022051Z AUTO 20008KT 10SM CLR 30/25 A3007 RMK AO2 SLP182
T03000250 58010





000
SAUS44 KLIX 021952
MTRBVE
METAR KBVE 021951Z AUTO 20006KT 10SM CLR 30/24 A3009 RMK AO2 SLP187
T03000239





000
SAUS44 KLIX 021853 COR
MTRBVE
METAR KBVE 021851Z AUTO 18008KT 10SM CLR 30/25 A3009 RMK AO2 SLP189
T03000250





000
SAUS44 KLIX 021753
MTRBVE
METAR KBVE 021751Z AUTO 17012KT 10SM FEW018 30/25 A3010 RMK AO2
SLP192 T03000250 10300 20267 58009





000
SAUS44 KLIX 021723 COR
MTRBVE
SPECI KBVE 021717Z AUTO 18010KT 10SM FEW005 30/26 A3010 RMK AO2
T03000256





000
SAUS44 KLIX 021723 COR
MTRBVE
SPECI KBVE 021717Z AUTO 18010KT 10SM FEW005 30/26 A3010 RMK AO2
T03000256





000
SAUS44 KLIX 021719 COR
MTRBVE
SPECI KBVE 021717Z AUTO 18010KT 10SM FEW005 30/26 A3010 RMK AO2
T03000256





000
SAUS44 KLIX 021719 COR
MTRBVE
SPECI KBVE 021717Z AUTO 18010KT 10SM FEW005 30/26 A3010 RMK AO2
T03000256





000
SAUS44 KLIX 021718
MTRBVE
SPECI KBVE 021717Z AUTO 18010KT 10SM FEW005 30/26 A3010 RMK AO2
T03000256





000
SAUS44 KLIX 021718
MTRBVE
SPECI KBVE 021717Z AUTO 18010KT 10SM FEW005 30/26 A3010 RMK AO2
T03000256





000
SAUS44 KLIX 021652
MTRBVE
METAR KBVE 021651Z AUTO 19010KT 10SM CLR 30/26 A3011 RMK AO2 SLP196
T03000256





000
SAUS44 KLIX 021652
MTRBVE
METAR KBVE 021651Z AUTO 19010KT 10SM CLR 30/26 A3011 RMK AO2 SLP196
T03000256





000
SAUS44 KLIX 021552
MTRBVE
METAR KBVE 021551Z AUTO 17004KT 10SM CLR 29/25 A3013 RMK AO2 SLP202
T02890250





000
SAUS44 KLIX 021452
MTRBVE
METAR KBVE 021451Z AUTO 16007KT 10SM CLR 28/24 A3012 RMK AO2 SLP201
T02830244 51016





000
SAUS44 KLIX 021452
MTRBVE
METAR KBVE 021451Z AUTO 16007KT 10SM CLR 28/24 A3012 RMK AO2 SLP201
T02830244 51016





000
SAUS44 KLIX 021352
MTRBVE
METAR KBVE 021351Z AUTO 15005KT 10SM CLR 27/24 A3012 RMK AO2 SLP199
T02720239





000
SAUS44 KLIX 021252
MTRBVE
METAR KBVE 021251Z AUTO 14006KT 10SM FEW019 27/26 A3011 RMK AO2
SLP196 T02720256





000
SAUS44 KLIX 021152
MTRBVE
METAR KBVE 021151Z AUTO 19008KT 10SM CLR 27/25 A3008 RMK AO2 RAE15
SLP185 P0000 60043 70043 T02670250 10289 20239 55007





000
SAUS44 KLIX 021152
MTRBVE
METAR KBVE 021151Z AUTO 19008KT 10SM CLR 27/25 A3008 RMK AO2 RAE15
SLP185 P0000 60043 70043 T02670250 10289 20239 55007





000
SAUS44 KLIX 021052
MTRBVE
METAR KBVE 021051Z AUTO 17007G16KT 10SM -RA SCT120 26/23 A3007 RMK
AO2 SLP181 P0004 T02560228





000
SAUS44 KLIX 020952
MTRBVE
METAR KBVE 020951Z AUTO 16003KT 10SM -RA SCT120 26/22 A3007 RMK AO2
SLP183 P0001 T02560222





000
SAUS44 KLIX 020910 COR
MTRBVE
SPECI KBVE 020906Z AUTO 10005KT 10SM -RA FEW021 SCT030 BKN110 24/22
A3009 RMK AO2 P0001 T02440222





000
SAUS44 KLIX 020908 COR
MTRBVE
SPECI KBVE 020906Z AUTO 10005KT 10SM -RA FEW021 SCT030 BKN110 24/22
A3009 RMK AO2 P0001 T02440222





000
SAUS44 KLIX 020908 COR
MTRBVE
SPECI KBVE 020906Z AUTO 10005KT 10SM -RA FEW021 SCT030 BKN110 24/22
A3009 RMK AO2 P0001 T02440222





000
SAUS44 KLIX 020907
MTRBVE
SPECI KBVE 020906Z AUTO 10005KT 10SM -RA FEW021 SCT030 BKN110 24/22
A3009 RMK AO2 P0001 T02440222





000
SAUS44 KLIX 020907
MTRBVE
SPECI KBVE 020906Z AUTO 10005KT 10SM -RA FEW021 SCT030 BKN110 24/22
A3009 RMK AO2 P0001 T02440222





000
SAUS44 KLIX 020903 COR
MTRBVE
SPECI KBVE 020859Z AUTO 07007KT 10SM -RA BKN023 BKN030 OVC110 24/22
A3009 RMK AO2 P0001 T02390217





000
SAUS44 KLIX 020901 COR
MTRBVE
SPECI KBVE 020859Z AUTO 07007KT 10SM -RA BKN023 BKN030 OVC110 24/22
A3009 RMK AO2 P0001 T02390217





000
SAUS44 KLIX 020853
MTRBVE
METAR KBVE 020851Z AUTO 04009KT 2SM +RA BR BKN019 BKN023 OVC030
24/22 A3010 RMK AO2 RAB38 SLP192 P0038 60038 T02440222 53004





000
SAUS44 KLIX 020846
MTRBVE
SPECI KBVE 020845Z AUTO VRB06G15KT 1 3/4SM +RA BR BKN019 24/22 A3010
RMK AO2 RAB38 PRESRR P0019





000
SAUS44 KLIX 020846
MTRBVE
SPECI KBVE 020845Z AUTO VRB06G15KT 1 3/4SM +RA BR BKN019 24/22 A3010
RMK AO2 RAB38 PRESRR P0019





000
SAUS44 KLIX 020840
MTRBVE
SPECI KBVE 020839Z AUTO 31012G16KT 6SM -RA FEW013 BKN020 27/22 A3009
RMK AO2 RAB38 P0000 T02670222





000
SAUS44 KLIX 020756 COR
MTRBVE
METAR KBVE 020751Z AUTO 22008KT 10SM CLR 29/25 A3006 RMK AO2 SLP178
T02890250





000
SAUS44 KLIX 020753 COR
MTRBVE
METAR KBVE 020751Z AUTO 22008KT 10SM CLR 29/25 A3006 RMK AO2 SLP178
T02890250





000
SAUS44 KLIX 020752
MTRBVE
METAR KBVE 020751Z AUTO 22008KT 10SM CLR 29/25 A3006 RMK AO2 SLP178
T02890250





000
SAUS44 KLIX 020652
MTRBVE
METAR KBVE 020651Z AUTO 23008KT 10SM CLR 28/25 A3007 RMK AO2 SLP184
T02830250





000
SAUS44 KLIX 020552
MTRBVE
METAR KBVE 020551Z AUTO 20005KT 10SM FEW024 27/24 A3009 RMK AO2
SLP188 60000 T02720239 10294 20261 403170256 58006





000
SAUS44 KLIX 020452
MTRBVE
METAR KBVE 020451Z AUTO 15004KT 10SM CLR 27/23 A3009 RMK AO2 SLP190
T02670233





000
SAUS44 KLIX 020352
MTRBVE
METAR KBVE 020351Z AUTO 12003KT 10SM CLR 26/23 A3011 RMK AO2 SLP196
T02610228





000
SAUS44 KLIX 020252
MTRBVE
METAR KBVE 020251Z AUTO 00000KT 10SM FEW028 26/23 A3011 RMK AO2
RAB24E36 SLP194 P0000 60000 T02610228 50005





    US Dept of Commerce
    National Oceanic and Atmospheric Administration
    National Weather Service
    1325 East West Highway
    Silver Spring, MD 20910
    Page Author: NWS Internet Services Team
Disclaimer
Information Quality
Credits
Glossary
Privacy Policy
Freedom of Information Act (FOIA)
About Us
Career Opportunities